createdAt,value
2022-12-27T00:00:55.720Z,44.90
2022-12-27T00:02:03.217Z,44.90
2022-12-27T00:03:07.968Z,44.90
2022-12-27T00:04:11.568Z,44.90
2022-12-27T00:05:16.637Z,44.80
2022-12-27T00:06:21.653Z,44.90
2022-12-27T00:07:25.532Z,44.90
2022-12-27T00:08:28.385Z,44.90
2022-12-27T00:09:35.146Z,44.80
2022-12-27T00:10:37.758Z,44.80
2022-12-27T00:11:40.648Z,44.80
2022-12-27T00:12:43.192Z,44.90
2022-12-27T00:13:46.249Z,44.90
2022-12-27T00:14:48.769Z,44.80
2022-12-27T00:15:52.084Z,44.80
2022-12-27T00:16:54.717Z,44.80
2022-12-27T00:17:58.339Z,44.80
2022-12-27T00:19:03.211Z,44.90
2022-12-27T00:20:11.259Z,44.80
2022-12-27T00:21:15.122Z,44.80
2022-12-27T00:22:17.582Z,44.80
2022-12-27T00:23:22.615Z,44.80
2022-12-27T00:24:25.097Z,44.80
2022-12-27T00:25:27.575Z,44.80
2022-12-27T00:26:32.726Z,44.80
2022-12-27T00:27:35.223Z,44.80
2022-12-27T00:28:38.121Z,44.80
2022-12-27T00:29:43.939Z,45.40
2022-12-27T00:30:46.394Z,44.90
2022-12-27T00:31:49.015Z,44.80
2022-12-27T00:32:51.473Z,44.80
2022-12-27T00:33:56.564Z,44.70
2022-12-27T00:35:00.174Z,44.80
2022-12-27T00:36:05.330Z,44.70
2022-12-27T00:37:08.018Z,44.70
2022-12-27T00:38:13.086Z,44.70
2022-12-27T00:39:15.876Z,44.80
2022-12-27T00:40:19.972Z,44.70
2022-12-27T00:41:23.752Z,44.70
2022-12-27T00:42:26.917Z,44.70
2022-12-27T00:43:30.411Z,44.80
2022-12-27T00:44:32.968Z,44.70
2022-12-27T00:45:36.365Z,44.70
2022-12-27T00:46:38.967Z,44.70
2022-12-27T00:47:41.433Z,44.70
2022-12-27T00:48:45.716Z,44.70
2022-12-27T00:49:48.205Z,44.70
2022-12-27T00:50:56.659Z,44.60
2022-12-27T00:52:01.076Z,44.60
2022-12-27T00:53:03.628Z,44.60
2022-12-27T00:54:07.622Z,44.60
2022-12-27T00:55:11.713Z,44.60
2022-12-27T00:56:26.749Z,44.60
2022-12-27T00:57:29.200Z,44.60
2022-12-27T00:58:36.001Z,44.60
2022-12-27T00:59:42.427Z,44.60
2022-12-27T01:00:44.992Z,44.60
2022-12-27T01:01:47.790Z,44.60
2022-12-27T01:02:50.880Z,44.60
2022-12-27T01:03:54.103Z,44.60
2022-12-27T01:04:57.454Z,44.60
2022-12-27T01:06:05.374Z,44.50
2022-12-27T01:07:07.831Z,44.50
2022-12-27T01:08:10.554Z,44.60
2022-12-27T01:09:13.045Z,44.50
2022-12-27T01:10:15.702Z,44.50
2022-12-27T01:11:19.516Z,44.60
2022-12-27T01:12:24.836Z,44.50
2022-12-27T01:13:27.707Z,44.40
2022-12-27T01:14:31.755Z,44.50
2022-12-27T01:15:34.290Z,44.50
2022-12-27T01:16:40.094Z,44.50
2022-12-27T01:17:42.605Z,44.40
2022-12-27T01:18:46.741Z,44.40
2022-12-27T01:19:49.186Z,44.50
2022-12-27T01:20:52.083Z,44.40
2022-12-27T01:21:55.081Z,44.50
2022-12-27T01:22:57.809Z,44.40
2022-12-27T01:24:00.401Z,44.40
2022-12-27T01:25:04.159Z,44.30
2022-12-27T01:26:10.418Z,44.30
2022-12-27T01:27:12.892Z,44.30
2022-12-27T01:28:15.391Z,44.40
2022-12-27T01:29:17.847Z,44.30
2022-12-27T01:30:20.686Z,44.30
2022-12-27T01:31:28.241Z,44.30
2022-12-27T01:32:35.572Z,44.40
2022-12-27T01:33:38.089Z,44.30
2022-12-27T01:34:40.558Z,44.30
2022-12-27T01:35:43.958Z,44.30
2022-12-27T01:36:47.035Z,44.30
2022-12-27T01:37:51.744Z,44.30
2022-12-27T01:38:54.697Z,44.20
2022-12-27T01:39:57.144Z,44.20
2022-12-27T01:40:59.609Z,44.20
2022-12-27T01:42:23.079Z,44.30
2022-12-27T01:43:43.432Z,44.20
2022-12-27T01:44:53.313Z,44.20
2022-12-27T01:45:57.532Z,44.20
2022-12-27T01:47:01.038Z,44.20
2022-12-27T01:48:23.955Z,44.20
2022-12-27T01:49:27.980Z,44.80
2022-12-27T01:50:41.782Z,44.20
2022-12-27T01:51:44.299Z,44.20
2022-12-27T01:52:51.722Z,44.20
2022-12-27T01:53:54.442Z,44.70
2022-12-27T01:55:01.875Z,44.10
2022-12-27T01:56:20.844Z,44.10
2022-12-27T01:57:23.391Z,44.20
2022-12-27T01:58:45.981Z,44.10
2022-12-27T01:59:48.977Z,44.10
2022-12-27T02:00:52.897Z,44.10
2022-12-27T02:02:00.387Z,44.10
2022-12-27T02:03:05.500Z,44.00
2022-12-27T02:04:11.699Z,44.00
2022-12-27T02:05:20.293Z,44.00
2022-12-27T02:06:24.414Z,44.00
2022-12-27T02:07:37.869Z,44.00
2022-12-27T02:09:01.746Z,44.00
2022-12-27T02:10:05.031Z,44.00
2022-12-27T02:11:08.973Z,44.00
2022-12-27T02:12:12.000Z,44.00
2022-12-27T02:13:15.900Z,44.50
2022-12-27T02:14:41.152Z,43.90
2022-12-27T02:15:45.148Z,43.90
2022-12-27T02:16:47.677Z,44.50
2022-12-27T02:17:50.579Z,43.90
2022-12-27T02:18:53.073Z,43.90
2022-12-27T02:20:16.682Z,43.90
2022-12-27T02:21:42.142Z,43.90
2022-12-27T02:23:40.251Z,43.90
2022-12-27T02:25:01.993Z,43.90
2022-12-27T02:26:13.557Z,43.90
2022-12-27T02:27:21.845Z,43.90
2022-12-27T02:28:58.841Z,43.80
2022-12-27T02:30:07.578Z,43.90
2022-12-27T02:31:21.968Z,43.80
2022-12-27T02:32:52.406Z,43.80
2022-12-27T02:33:58.957Z,43.80
2022-12-27T02:35:10.049Z,43.80
2022-12-27T02:36:18.778Z,43.70
2022-12-27T02:37:25.169Z,43.70
2022-12-27T02:38:32.972Z,43.70
2022-12-27T02:39:41.411Z,43.70
2022-12-27T02:41:04.199Z,43.80
2022-12-27T02:42:26.062Z,43.70
2022-12-27T02:43:48.161Z,43.70
2022-12-27T02:45:09.261Z,43.70
2022-12-27T02:46:45.460Z,43.70
2022-12-27T02:48:07.485Z,43.70
2022-12-27T02:49:43.806Z,43.70
2022-12-27T02:51:44.547Z,43.70
2022-12-27T02:53:13.174Z,43.70
2022-12-27T02:54:37.994Z,43.70
2022-12-27T02:56:25.073Z,43.70
2022-12-27T02:57:28.723Z,43.70
2022-12-27T02:58:55.087Z,43.60
2022-12-27T03:00:44.342Z,43.60
2022-12-27T03:02:08.437Z,43.60
2022-12-27T03:03:47.747Z,43.60
2022-12-27T03:05:21.270Z,43.60
2022-12-27T03:06:47.848Z,43.60
2022-12-27T03:08:08.920Z,43.60
2022-12-27T03:09:53.185Z,43.50
2022-12-27T03:11:19.887Z,43.50
2022-12-27T03:13:01.057Z,43.50
2022-12-27T03:14:56.300Z,43.50
2022-12-27T03:16:04.424Z,43.50
2022-12-27T03:17:14.438Z,43.50
2022-12-27T03:18:39.080Z,43.50
2022-12-27T03:20:10.473Z,43.40
2022-12-27T03:21:51.833Z,43.40
2022-12-27T03:23:14.799Z,43.40
2022-12-27T03:24:44.566Z,43.40
2022-12-27T03:25:50.114Z,43.30
2022-12-27T03:26:54.619Z,43.40
2022-12-27T03:28:38.154Z,43.40
2022-12-27T03:30:00.610Z,43.30
2022-12-27T03:31:28.462Z,43.40
2022-12-27T03:32:51.002Z,43.40
2022-12-27T03:34:05.229Z,43.30
2022-12-27T03:35:19.459Z,43.30
2022-12-27T03:36:43.426Z,43.20
2022-12-27T03:38:05.664Z,43.30
2022-12-27T03:39:17.643Z,43.30
2022-12-27T03:41:06.899Z,43.20
2022-12-27T03:42:38.630Z,43.20
2022-12-27T03:43:43.910Z,43.20
2022-12-27T03:44:47.426Z,43.20
2022-12-27T03:46:19.907Z,43.10
2022-12-27T03:47:49.107Z,43.20
2022-12-27T03:49:06.928Z,43.20
2022-12-27T03:50:35.544Z,43.20
2022-12-27T03:51:51.297Z,43.20
2022-12-27T03:53:00.870Z,43.20
2022-12-27T03:54:11.623Z,43.10
2022-12-27T03:55:15.143Z,43.70
2022-12-27T03:56:20.928Z,43.10
2022-12-27T03:57:26.321Z,43.10
2022-12-27T03:58:30.020Z,43.10
2022-12-27T03:59:33.170Z,43.10
2022-12-27T04:00:36.120Z,43.10
2022-12-27T04:01:39.511Z,43.10
2022-12-27T04:02:42.227Z,43.10
2022-12-27T04:03:44.839Z,43.00
2022-12-27T04:04:50.075Z,43.00
2022-12-27T04:05:52.637Z,43.00
2022-12-27T04:06:55.882Z,43.00
2022-12-27T04:08:16.637Z,43.00
2022-12-27T04:09:37.869Z,43.00
2022-12-27T04:10:58.871Z,43.00
2022-12-27T04:12:19.925Z,43.00
2022-12-27T04:13:41.606Z,43.00
2022-12-27T04:15:04.714Z,43.00
2022-12-27T04:16:26.747Z,43.00
2022-12-27T04:17:48.190Z,43.00
2022-12-27T04:19:09.829Z,43.00
2022-12-27T04:20:31.040Z,43.00
2022-12-27T04:21:52.820Z,42.90
2022-12-27T04:23:13.754Z,43.00
2022-12-27T04:24:34.824Z,42.90
2022-12-27T04:25:55.842Z,42.90
2022-12-27T04:27:17.970Z,42.90
2022-12-27T04:28:38.843Z,42.90
2022-12-27T04:30:00.459Z,42.90
2022-12-27T04:31:21.686Z,42.80
2022-12-27T04:32:42.603Z,42.80
2022-12-27T04:34:04.725Z,42.80
2022-12-27T04:35:07.291Z,42.80
2022-12-27T04:36:09.868Z,42.80
2022-12-27T04:37:15.578Z,42.80
2022-12-27T04:38:18.057Z,42.80
2022-12-27T04:39:23.422Z,42.80
2022-12-27T04:40:44.426Z,42.80
2022-12-27T04:42:05.435Z,42.80
2022-12-27T04:43:41.052Z,42.80
2022-12-27T04:45:02.537Z,42.80
2022-12-27T04:46:28.902Z,42.80
2022-12-27T04:47:50.950Z,42.80
2022-12-27T04:49:12.329Z,42.80
2022-12-27T04:50:53.678Z,42.70
2022-12-27T04:52:14.695Z,42.70
2022-12-27T04:53:38.878Z,42.80
2022-12-27T04:54:59.422Z,42.70
2022-12-27T04:56:02.308Z,42.70
2022-12-27T04:57:04.929Z,42.60
2022-12-27T04:58:08.841Z,42.60
2022-12-27T04:59:29.781Z,42.60
2022-12-27T05:00:52.650Z,42.60
2022-12-27T05:02:03.911Z,42.80
2022-12-27T05:03:14.331Z,42.60
2022-12-27T05:04:17.030Z,42.60
2022-12-27T05:05:19.802Z,42.60
2022-12-27T05:06:26.900Z,42.60
2022-12-27T05:07:48.395Z,42.60
2022-12-27T05:09:09.324Z,42.60
2022-12-27T05:10:30.664Z,42.60
2022-12-27T05:11:56.304Z,42.60
2022-12-27T05:13:17.653Z,43.20
2022-12-27T05:14:21.507Z,42.60
2022-12-27T05:15:24.445Z,42.60
2022-12-27T05:16:37.554Z,42.60
2022-12-27T05:17:40.012Z,42.60
2022-12-27T05:18:42.852Z,43.10
2022-12-27T05:19:45.336Z,42.50
2022-12-27T05:20:47.918Z,42.50
2022-12-27T05:22:10.768Z,42.50
2022-12-27T05:23:35.094Z,42.50
2022-12-27T05:24:56.131Z,42.50
2022-12-27T05:26:00.161Z,42.60
2022-12-27T05:27:02.662Z,42.50
2022-12-27T05:28:08.823Z,42.50
2022-12-27T05:29:11.765Z,42.50
2022-12-27T05:30:14.212Z,42.50
2022-12-27T05:31:16.648Z,42.50
2022-12-27T05:32:19.207Z,42.50
2022-12-27T05:33:21.683Z,42.40
2022-12-27T05:34:24.164Z,42.50
2022-12-27T05:35:26.820Z,42.50
2022-12-27T05:36:29.945Z,42.50
2022-12-27T05:37:32.441Z,42.40
2022-12-27T05:38:35.394Z,42.50
2022-12-27T05:39:38.383Z,42.40
2022-12-27T05:40:41.176Z,42.50
2022-12-27T05:41:43.596Z,42.40
2022-12-27T05:42:47.699Z,42.40
2022-12-27T05:43:52.257Z,42.40
2022-12-27T05:44:56.644Z,42.40
2022-12-27T05:46:16.311Z,42.40
2022-12-27T05:47:18.889Z,42.40
2022-12-27T05:48:22.515Z,42.40
2022-12-27T05:49:24.994Z,42.40
2022-12-27T05:50:27.852Z,42.30
2022-12-27T05:51:45.247Z,42.30
2022-12-27T05:52:48.970Z,42.40
2022-12-27T05:53:51.499Z,42.40
2022-12-27T05:54:53.966Z,42.30
2022-12-27T05:55:59.022Z,42.40
2022-12-27T05:57:01.852Z,42.30
2022-12-27T05:58:04.728Z,42.30
2022-12-27T05:59:08.149Z,42.30
2022-12-27T06:00:12.810Z,42.30
2022-12-27T06:01:17.547Z,42.40
2022-12-27T06:02:21.032Z,42.30
2022-12-27T06:03:25.888Z,42.30
2022-12-27T06:04:28.897Z,42.30
2022-12-27T06:05:31.375Z,42.30
2022-12-27T06:06:34.858Z,42.30
2022-12-27T06:07:38.689Z,42.30
2022-12-27T06:08:41.434Z,42.30
2022-12-27T06:09:45.297Z,42.30
2022-12-27T06:10:49.945Z,42.30
2022-12-27T06:11:52.351Z,42.30
2022-12-27T06:12:54.883Z,42.20
2022-12-27T06:13:58.718Z,42.30
2022-12-27T06:15:01.519Z,42.20
2022-12-27T06:16:07.447Z,42.30
2022-12-27T06:17:09.968Z,42.20
2022-12-27T06:18:14.642Z,42.20
2022-12-27T06:19:17.177Z,42.30
2022-12-27T06:20:20.841Z,42.20
2022-12-27T06:21:23.443Z,42.30
2022-12-27T06:22:26.934Z,42.20
2022-12-27T06:23:30.802Z,42.20
2022-12-27T06:24:33.216Z,42.10
2022-12-27T06:25:38.222Z,42.20
2022-12-27T06:26:42.246Z,42.20
2022-12-27T06:27:46.253Z,42.20
2022-12-27T06:28:50.219Z,42.20
2022-12-27T06:29:52.664Z,42.20
2022-12-27T06:30:55.125Z,42.20
2022-12-27T06:31:57.840Z,42.20
2022-12-27T06:33:01.588Z,42.10
2022-12-27T06:34:04.235Z,42.10
2022-12-27T06:35:08.627Z,42.10
2022-12-27T06:36:13.685Z,42.10
2022-12-27T06:37:16.208Z,42.10
2022-12-27T06:38:18.704Z,42.20
2022-12-27T06:39:21.163Z,42.10
2022-12-27T06:40:23.747Z,42.10
2022-12-27T06:41:26.578Z,42.10
2022-12-27T06:42:31.254Z,42.10
2022-12-27T06:43:34.712Z,42.20
2022-12-27T06:44:37.521Z,42.10
2022-12-27T06:45:41.356Z,42.10
2022-12-27T06:46:43.835Z,42.10
2022-12-27T06:47:46.797Z,42.10
2022-12-27T06:48:49.890Z,42.10
2022-12-27T06:49:52.327Z,42.10
2022-12-27T06:50:55.885Z,42.10
2022-12-27T06:51:59.902Z,42.10
2022-12-27T06:53:02.499Z,42.10
2022-12-27T06:54:05.116Z,42.10
2022-12-27T06:55:08.027Z,42.10
2022-12-27T06:56:12.994Z,42.00
2022-12-27T06:57:15.813Z,42.00
2022-12-27T06:58:18.359Z,42.10
2022-12-27T06:59:21.341Z,42.10
2022-12-27T07:00:25.940Z,42.00
2022-12-27T07:01:29.624Z,42.00
2022-12-27T07:02:33.956Z,42.00
2022-12-27T07:03:38.197Z,42.00
2022-12-27T07:04:40.690Z,42.00
2022-12-27T07:05:43.862Z,42.00
2022-12-27T07:06:46.411Z,42.00
2022-12-27T07:07:49.857Z,42.00
2022-12-27T07:08:53.002Z,42.00
2022-12-27T07:09:55.947Z,42.00
2022-12-27T07:11:06.953Z,42.00
2022-12-27T07:12:09.427Z,42.00
2022-12-27T07:13:12.302Z,42.00
2022-12-27T07:14:14.815Z,42.00
2022-12-27T07:15:18.395Z,42.00
2022-12-27T07:16:23.345Z,42.00
2022-12-27T07:17:25.781Z,41.90
2022-12-27T07:18:30.675Z,42.00
2022-12-27T07:19:33.875Z,42.00
2022-12-27T07:20:36.328Z,42.00
2022-12-27T07:21:39.609Z,42.00
2022-12-27T07:22:42.066Z,41.90
2022-12-27T07:23:44.597Z,42.00
2022-12-27T07:24:47.083Z,41.90
2022-12-27T07:25:50.119Z,41.90
2022-12-27T07:26:53.459Z,42.00
2022-12-27T07:27:55.981Z,41.90
2022-12-27T07:29:00.302Z,41.90
2022-12-27T07:30:05.114Z,41.80
2022-12-27T07:31:19.327Z,41.90
2022-12-27T07:32:22.301Z,41.90
2022-12-27T07:33:24.842Z,41.90
2022-12-27T07:34:27.338Z,41.90
2022-12-27T07:35:29.812Z,41.90
2022-12-27T07:36:40.104Z,41.90
2022-12-27T07:37:42.921Z,41.90
2022-12-27T07:38:45.966Z,41.90
2022-12-27T07:39:48.795Z,41.90
2022-12-27T07:40:53.294Z,41.80
2022-12-27T07:41:55.768Z,41.90
2022-12-27T07:42:59.214Z,41.90
2022-12-27T07:44:02.541Z,41.90
2022-12-27T07:45:05.566Z,41.90
2022-12-27T07:46:13.870Z,41.90
2022-12-27T07:47:17.516Z,41.80
2022-12-27T07:48:20.462Z,41.80
2022-12-27T07:49:22.951Z,41.80
2022-12-27T07:50:32.802Z,41.80
2022-12-27T07:51:38.437Z,41.80
2022-12-27T07:52:40.948Z,41.80
2022-12-27T07:53:45.042Z,41.80
2022-12-27T07:54:49.106Z,41.80
2022-12-27T07:55:51.586Z,41.80
2022-12-27T07:56:54.009Z,41.80
2022-12-27T07:57:58.941Z,41.70
2022-12-27T07:59:02.145Z,41.70
2022-12-27T08:00:07.298Z,41.80
2022-12-27T08:01:16.604Z,41.70
2022-12-27T08:02:19.340Z,41.70
2022-12-27T08:03:21.887Z,41.70
2022-12-27T08:04:25.515Z,41.70
2022-12-27T08:05:28.188Z,41.70
2022-12-27T08:06:33.481Z,41.70
2022-12-27T08:07:38.480Z,41.70
2022-12-27T08:08:44.297Z,41.70
2022-12-27T08:09:48.778Z,41.70
2022-12-27T08:10:51.349Z,41.70
2022-12-27T08:11:53.856Z,41.70
2022-12-27T08:12:58.571Z,41.70
2022-12-27T08:14:01.474Z,41.70
2022-12-27T08:15:04.228Z,41.60
2022-12-27T08:16:07.321Z,41.70
2022-12-27T08:17:23.178Z,41.60
2022-12-27T08:18:27.383Z,41.70
2022-12-27T08:19:30.434Z,41.60
2022-12-27T08:20:33.028Z,41.60
2022-12-27T08:21:35.481Z,41.60
2022-12-27T08:22:37.951Z,41.50
2022-12-27T08:23:40.914Z,41.60
2022-12-27T08:24:44.007Z,41.60
2022-12-27T08:25:49.067Z,41.50
2022-12-27T08:26:51.758Z,41.50
2022-12-27T08:28:02.404Z,41.60
2022-12-27T08:29:04.907Z,42.10
2022-12-27T08:30:08.263Z,41.60
2022-12-27T08:31:12.443Z,41.60
2022-12-27T08:32:15.024Z,41.60
2022-12-27T08:33:20.296Z,41.50
2022-12-27T08:34:23.225Z,41.60
2022-12-27T08:35:51.748Z,41.50
2022-12-27T08:36:55.516Z,41.50
2022-12-27T08:38:01.957Z,41.60
2022-12-27T08:39:07.528Z,41.50
2022-12-27T08:40:12.816Z,41.50
2022-12-27T08:41:20.721Z,41.50
2022-12-27T08:42:23.156Z,41.50
2022-12-27T08:43:25.639Z,41.50
2022-12-27T08:44:28.124Z,41.50
2022-12-27T08:45:30.560Z,41.50
2022-12-27T08:46:33.190Z,41.50
2022-12-27T08:47:36.384Z,41.40
2022-12-27T08:48:40.169Z,41.40
2022-12-27T08:49:43.213Z,41.50
2022-12-27T08:50:46.812Z,41.50
2022-12-27T08:51:50.759Z,41.40
2022-12-27T08:52:58.212Z,41.30
2022-12-27T08:54:01.473Z,41.40
2022-12-27T08:55:04.980Z,41.40
2022-12-27T08:56:07.822Z,41.40
2022-12-27T08:57:10.550Z,41.30
2022-12-27T08:58:16.568Z,41.40
2022-12-27T08:59:21.323Z,41.40
2022-12-27T09:00:24.804Z,41.40
2022-12-27T09:01:28.457Z,41.30
2022-12-27T09:02:31.789Z,41.40
2022-12-27T09:03:35.225Z,41.30
2022-12-27T09:04:39.388Z,41.30
2022-12-27T09:05:42.368Z,41.30
2022-12-27T09:06:44.960Z,41.30
2022-12-27T09:07:50.278Z,41.30
2022-12-27T09:08:56.034Z,41.30
2022-12-27T09:10:00.131Z,41.30
2022-12-27T09:11:24.008Z,41.30
2022-12-27T09:12:26.487Z,41.30
2022-12-27T09:13:29.014Z,41.40
2022-12-27T09:14:31.438Z,41.20
2022-12-27T09:15:33.998Z,41.30
2022-12-27T09:16:37.134Z,41.80
2022-12-27T09:17:40.630Z,41.30
2022-12-27T09:18:47.533Z,41.20
2022-12-27T09:19:50.034Z,41.20
2022-12-27T09:20:53.286Z,41.30
2022-12-27T09:21:55.782Z,41.30
2022-12-27T09:22:59.304Z,41.20
2022-12-27T09:24:02.381Z,41.20
2022-12-27T09:25:05.556Z,41.20
2022-12-27T09:26:15.397Z,41.20
2022-12-27T09:27:17.822Z,41.20
2022-12-27T09:28:21.965Z,41.20
2022-12-27T09:29:24.436Z,41.20
2022-12-27T09:30:27.533Z,41.20
2022-12-27T09:31:30.832Z,41.20
2022-12-27T09:32:33.664Z,41.10
2022-12-27T09:33:36.526Z,41.20
2022-12-27T09:34:39.422Z,41.10
2022-12-27T09:35:41.873Z,41.10
2022-12-27T09:36:45.985Z,41.20
2022-12-27T09:37:50.367Z,41.10
2022-12-27T09:38:54.781Z,41.10
2022-12-27T09:39:57.293Z,41.00
2022-12-27T09:41:03.806Z,41.10
2022-12-27T09:43:58.216Z,41.10
2022-12-27T09:45:32.925Z,41.10
2022-12-27T09:46:48.574Z,41.00
2022-12-27T09:48:02.401Z,41.10
2022-12-27T09:49:08.944Z,41.00
2022-12-27T09:50:43.830Z,41.10
2022-12-27T09:51:52.169Z,41.00
2022-12-27T09:53:17.518Z,41.10
2022-12-27T09:54:33.139Z,41.10
2022-12-27T09:55:45.868Z,41.10
2022-12-27T09:57:18.367Z,41.10
2022-12-27T09:58:37.538Z,41.00
2022-12-27T09:59:46.871Z,41.10
2022-12-27T10:00:52.891Z,41.10
2022-12-27T10:01:56.419Z,41.10
2022-12-27T10:03:02.385Z,41.00
2022-12-27T10:04:11.739Z,41.10
2022-12-27T10:05:25.804Z,41.10
2022-12-27T10:06:31.539Z,41.00
2022-12-27T10:07:52.942Z,41.10
2022-12-27T10:09:23.387Z,41.10
2022-12-27T10:10:43.664Z,41.10
2022-12-27T10:12:13.594Z,41.10
2022-12-27T10:13:35.458Z,41.00
2022-12-27T10:14:59.817Z,41.10
2022-12-27T10:16:28.888Z,41.10
2022-12-27T10:17:56.743Z,41.00
2022-12-27T10:19:35.782Z,41.10
2022-12-27T10:21:09.289Z,41.00
2022-12-27T10:22:38.848Z,41.00
2022-12-27T10:23:45.390Z,40.90
2022-12-27T10:24:51.617Z,41.00
2022-12-27T10:25:58.813Z,40.90
2022-12-27T10:27:02.249Z,40.90
2022-12-27T10:28:19.620Z,40.90
2022-12-27T10:29:26.866Z,40.80
2022-12-27T10:30:31.392Z,40.90
2022-12-27T10:31:42.910Z,40.80
2022-12-27T10:32:47.995Z,40.90
2022-12-27T10:33:52.033Z,40.80
2022-12-27T10:35:01.328Z,40.80
2022-12-27T10:36:14.328Z,40.80
2022-12-27T10:37:17.405Z,40.80
2022-12-27T10:38:21.074Z,40.90
2022-12-27T10:39:29.247Z,40.80
2022-12-27T10:40:43.206Z,40.70
2022-12-27T10:42:09.801Z,40.80
2022-12-27T10:43:18.834Z,40.80
2022-12-27T10:44:24.920Z,40.80
2022-12-27T10:45:40.045Z,40.80
2022-12-27T10:46:51.110Z,40.80
2022-12-27T10:47:56.061Z,40.80
2022-12-27T10:49:22.392Z,40.80
2022-12-27T10:50:29.935Z,40.80
2022-12-27T10:51:40.536Z,40.80
2022-12-27T10:52:44.237Z,40.80
2022-12-27T10:53:47.021Z,40.70
2022-12-27T10:54:57.281Z,40.70
2022-12-27T10:56:21.359Z,40.70
2022-12-27T10:57:29.272Z,40.80
2022-12-27T10:58:34.729Z,40.70
2022-12-27T10:59:38.114Z,40.70
2022-12-27T11:00:54.476Z,40.70
2022-12-27T11:02:03.067Z,40.70
2022-12-27T11:03:06.422Z,40.70
2022-12-27T11:04:21.559Z,40.60
2022-12-27T11:05:25.928Z,40.60
2022-12-27T11:06:29.935Z,40.60
2022-12-27T11:07:34.334Z,40.60
2022-12-27T11:08:44.996Z,40.60
2022-12-27T11:09:51.053Z,40.60
2022-12-27T11:11:16.310Z,40.60
2022-12-27T11:12:29.220Z,40.60
2022-12-27T11:13:31.746Z,40.70
2022-12-27T11:14:37.193Z,40.60
2022-12-27T11:15:44.809Z,40.60
2022-12-27T11:16:49.142Z,40.60
2022-12-27T11:17:57.722Z,40.50
2022-12-27T11:19:01.395Z,40.60
2022-12-27T11:20:22.338Z,40.50
2022-12-27T11:21:28.134Z,40.60
2022-12-27T11:22:33.546Z,40.50
2022-12-27T11:23:43.158Z,40.60
2022-12-27T11:24:49.769Z,40.60
2022-12-27T11:25:55.804Z,40.60
2022-12-27T11:27:00.327Z,40.60
2022-12-27T11:28:21.721Z,40.50
2022-12-27T11:29:29.138Z,40.50
2022-12-27T11:30:35.277Z,40.50
2022-12-27T11:31:42.481Z,40.50
2022-12-27T11:32:45.734Z,40.50
2022-12-27T11:33:54.682Z,40.50
2022-12-27T11:34:57.641Z,40.60
2022-12-27T11:36:01.653Z,40.50
2022-12-27T11:37:14.340Z,40.50
2022-12-27T11:38:24.794Z,40.40
2022-12-27T11:39:38.047Z,40.50
2022-12-27T11:40:41.019Z,40.50
2022-12-27T11:41:48.535Z,40.40
2022-12-27T11:43:19.348Z,40.40
2022-12-27T11:44:29.115Z,40.40
2022-12-27T11:45:42.165Z,40.50
2022-12-27T11:47:03.436Z,40.50
2022-12-27T11:48:20.088Z,40.50
2022-12-27T11:49:27.727Z,40.50
2022-12-27T11:50:56.924Z,40.50
2022-12-27T11:52:25.796Z,40.50
2022-12-27T11:53:37.089Z,40.50
2022-12-27T11:55:16.305Z,40.40
2022-12-27T11:56:30.157Z,40.40
2022-12-27T11:58:05.911Z,40.40
2022-12-27T11:59:36.412Z,40.40
2022-12-27T12:01:00.564Z,40.50
2022-12-27T12:02:27.965Z,40.50
2022-12-27T12:04:03.678Z,40.40
2022-12-27T12:05:22.182Z,40.30
2022-12-27T12:07:08.382Z,40.40
2022-12-27T12:08:32.787Z,40.40
2022-12-27T12:10:11.634Z,40.40
2022-12-27T12:11:54.947Z,40.30
2022-12-27T12:13:34.233Z,40.40
2022-12-27T12:14:58.310Z,40.30
2022-12-27T12:16:18.339Z,40.30
2022-12-27T12:17:32.466Z,40.40
2022-12-27T12:19:06.960Z,40.40
2022-12-27T12:20:21.377Z,40.30
2022-12-27T12:21:48.920Z,40.30
2022-12-27T12:23:12.913Z,40.30
2022-12-27T12:24:54.065Z,40.30
2022-12-27T12:26:10.993Z,40.30
2022-12-27T12:27:16.468Z,40.30
2022-12-27T12:29:00.325Z,40.30
2022-12-27T12:30:22.476Z,40.30
2022-12-27T12:32:00.574Z,40.40
2022-12-27T12:33:25.173Z,40.30
2022-12-27T12:34:49.752Z,40.30
2022-12-27T12:36:16.703Z,40.30
2022-12-27T12:37:26.741Z,40.30
2022-12-27T12:38:50.722Z,40.30
2022-12-27T12:40:13.918Z,40.30
2022-12-27T12:41:16.248Z,40.30
2022-12-27T12:42:32.338Z,40.30
2022-12-27T12:43:49.985Z,40.30
2022-12-27T12:45:11.580Z,40.30
2022-12-27T12:46:27.973Z,40.30
2022-12-27T12:47:58.061Z,40.20
2022-12-27T12:49:38.486Z,40.20
2022-12-27T12:50:52.572Z,40.30
2022-12-27T12:52:43.661Z,40.30
2022-12-27T12:53:59.604Z,40.30
2022-12-27T12:55:26.689Z,40.20
2022-12-27T12:56:42.865Z,40.20
2022-12-27T12:58:15.646Z,40.30
2022-12-27T12:59:54.920Z,40.30
2022-12-27T13:01:19.289Z,40.30
2022-12-27T13:03:15.680Z,40.30
2022-12-27T13:04:27.540Z,40.20
2022-12-27T13:06:09.807Z,40.20
2022-12-27T13:07:41.243Z,40.20
2022-12-27T13:09:17.358Z,40.20
2022-12-27T13:10:46.165Z,40.20
2022-12-27T13:12:16.002Z,40.20
2022-12-27T13:13:55.933Z,40.20
2022-12-27T13:15:25.479Z,40.20
2022-12-27T13:16:49.093Z,40.20
2022-12-27T13:18:04.748Z,40.20
2022-12-27T13:19:16.222Z,40.20
2022-12-27T13:20:43.663Z,40.20
2022-12-27T13:22:15.993Z,40.20
2022-12-27T13:23:50.424Z,40.20
2022-12-27T13:25:06.396Z,40.20
2022-12-27T13:26:25.436Z,40.20
2022-12-27T13:27:35.293Z,40.20
2022-12-27T13:29:15.829Z,40.10
2022-12-27T13:30:24.280Z,40.10
2022-12-27T13:32:05.184Z,40.10
2022-12-27T13:33:24.862Z,40.20
2022-12-27T13:34:55.031Z,40.20
2022-12-27T13:36:18.830Z,40.20
2022-12-27T13:37:37.478Z,40.10
2022-12-27T13:39:09.012Z,40.10
2022-12-27T13:40:45.845Z,40.10
2022-12-27T13:42:01.805Z,40.10
2022-12-27T13:43:32.732Z,40.20
2022-12-27T13:44:54.125Z,40.20
2022-12-27T13:46:15.221Z,40.20
2022-12-27T13:47:42.569Z,40.20
2022-12-27T13:49:19.735Z,40.10
2022-12-27T13:50:24.963Z,40.10
2022-12-27T13:51:42.171Z,40.20
2022-12-27T13:53:24.953Z,40.20
2022-12-27T13:55:02.622Z,40.20
2022-12-27T13:56:52.069Z,40.20
2022-12-27T13:58:10.489Z,40.70
2022-12-27T13:59:31.473Z,40.10
2022-12-27T14:01:19.155Z,40.10
2022-12-27T14:02:45.051Z,40.10
2022-12-27T14:04:39.786Z,40.10
2022-12-27T14:05:53.865Z,40.10
2022-12-27T14:07:17.471Z,40.10
2022-12-27T14:08:26.394Z,40.10
2022-12-27T14:10:04.564Z,40.00
2022-12-27T14:11:48.977Z,40.10
2022-12-27T14:12:58.520Z,40.10
2022-12-27T14:14:04.121Z,40.10
2022-12-27T14:15:09.010Z,40.10
2022-12-27T14:16:26.548Z,40.00
2022-12-27T14:17:35.716Z,40.10
2022-12-27T14:18:43.862Z,40.10
2022-12-27T14:20:04.910Z,40.00
2022-12-27T14:21:18.796Z,40.10
2022-12-27T14:22:22.113Z,40.10
2022-12-27T14:23:33.925Z,40.10
2022-12-27T14:24:49.519Z,40.00
2022-12-27T14:26:17.052Z,40.00
2022-12-27T14:27:39.221Z,40.10
2022-12-27T14:29:01.212Z,40.10
2022-12-27T14:30:22.534Z,40.00
2022-12-27T14:31:43.398Z,40.00
2022-12-27T14:33:04.242Z,40.00
2022-12-27T14:34:17.625Z,40.00
2022-12-27T14:35:38.595Z,40.10
2022-12-27T14:36:59.329Z,40.00
2022-12-27T14:38:05.875Z,40.00
2022-12-27T14:39:15.209Z,40.00
2022-12-27T14:40:34.509Z,40.00
2022-12-27T14:41:47.814Z,40.00
2022-12-27T14:43:10.187Z,40.00
2022-12-27T14:44:28.291Z,40.00
2022-12-27T14:45:33.734Z,40.50
2022-12-27T14:46:45.229Z,40.00
2022-12-27T14:48:06.184Z,39.90
2022-12-27T14:49:23.020Z,40.00
2022-12-27T14:50:41.461Z,40.00
2022-12-27T14:52:00.899Z,40.00
2022-12-27T14:53:10.997Z,39.90
2022-12-27T14:54:31.663Z,40.00
2022-12-27T14:55:43.933Z,40.00
2022-12-27T14:57:05.670Z,39.90
2022-12-27T14:58:15.280Z,40.00
2022-12-27T14:59:23.559Z,40.00
2022-12-27T15:00:28.235Z,40.00
2022-12-27T15:01:31.333Z,40.60
2022-12-27T15:02:49.670Z,40.00
2022-12-27T15:04:06.200Z,40.00
2022-12-27T15:05:26.211Z,40.00
2022-12-27T15:06:32.780Z,39.90
2022-12-27T15:07:40.822Z,40.00
2022-12-27T15:08:43.089Z,40.00
2022-12-27T15:10:02.286Z,40.00
2022-12-27T15:11:13.789Z,40.00
2022-12-27T15:12:25.206Z,40.00
2022-12-27T15:13:43.472Z,40.00
2022-12-27T15:15:04.976Z,40.00
2022-12-27T15:16:15.290Z,40.00
2022-12-27T15:17:36.809Z,39.90
2022-12-27T15:18:40.047Z,39.90
2022-12-27T15:19:43.719Z,40.00
2022-12-27T15:21:01.305Z,39.90
2022-12-27T15:22:08.003Z,39.90
2022-12-27T15:23:17.703Z,39.90
2022-12-27T15:24:28.587Z,39.90
2022-12-27T15:25:49.464Z,40.00
2022-12-27T15:26:57.563Z,39.90